TimeEDT,TemperatureF,Dew PointF,Humidity,Sea Level PressureIn,VisibilityMPH,Wind Direction,Wind SpeedMPH,Gust SpeedMPH,PrecipitationIn,Events,Conditions,WindDirDegrees,DateUTC
12:08 AM,59.0,59.0,100,29.97,7.0,Calm,Calm,-,N/A,,Clear,0,2013-10-17 04:08:00
12:18 AM,60.8,59.0,94,29.97,9.0,Calm,Calm,-,N/A,,Clear,0,2013-10-17 04:18:00
12:28 AM,59.0,59.0,100,29.97,7.0,Calm,Calm,-,N/A,,Clear,0,2013-10-17 04:28:00
12:38 AM,60.8,60.8,100,29.96,3.0,Calm,Calm,-,N/A,,Clear,0,2013-10-17 04:38:00
12:43 AM,59.0,59.0,100,29.96,0.8,Calm,Calm,-,N/A,,Clear,0,2013-10-17 04:43:00
12:48 AM,59.0,59.0,100,29.96,0.8,Calm,Calm,-,N/A,,Clear,0,2013-10-17 04:48:00
12:53 AM,59.0,59.0,100,29.96,1.0,Calm,Calm,-,N/A,,Clear,0,2013-10-17 04:53:00
12:58 AM,59.4,59.4,100,29.97,0.8,SE,2.3,-,N/A,,Clear,140,2013-10-17 04:58:00
1:03 AM,59.0,59.0,100,29.96,1.2,SE,2.3,-,N/A,,Clear,140,2013-10-17 05:03:00
1:08 AM,59.0,59.0,100,29.95,1.8,SE,2.3,-,N/A,,Clear,140,2013-10-17 05:08:00
1:13 AM,59.0,59.0,100,29.95,2.5,SE,2.3,-,N/A,,Clear,140,2013-10-17 05:13:00
1:18 AM,59.0,59.0,100,29.95,3.0,SE,1.2,-,N/A,,Clear,140,2013-10-17 05:18:00
1:23 AM,60.8,60.8,100,29.95,5.0,Calm,Calm,-,N/A,,Clear,0,2013-10-17 05:23:00
1:43 AM,59.0,59.0,100,29.95,2.0,ESE,2.3,-,N/A,,Clear,120,2013-10-17 05:43:00
1:48 AM,59.0,59.0,100,29.95,1.0,Calm,Calm,-,N/A,,Clear,0,2013-10-17 05:48:00
1:53 AM,59.0,59.0,100,29.95,1.2,Calm,Calm,-,N/A,,Clear,0,2013-10-17 05:53:00
1:58 AM,59.0,59.0,100,29.96,2.5,ESE,1.2,-,N/A,,Clear,120,2013-10-17 05:58:00
2:03 AM,59.0,59.0,100,29.95,6.0,East,1.2,-,N/A,,Clear,80,2013-10-17 06:03:00
2:23 AM,59.0,59.0,100,29.96,1.5,Calm,Calm,-,N/A,,Clear,0,2013-10-17 06:23:00
2:28 AM,59.0,59.0,100,29.96,0.5,Calm,Calm,-,N/A,Fog,Fog,0,2013-10-17 06:28:00
2:38 AM,59.0,59.0,100,29.95,0.8,Calm,Calm,-,N/A,,Clear,0,2013-10-17 06:38:00
2:43 AM,59.0,59.0,100,29.95,0.5,Calm,Calm,-,N/A,Fog,Fog,0,2013-10-17 06:43:00
2:58 AM,58.3,58.3,100,29.96,0.5,Calm,Calm,-,N/A,Fog,Fog,0,2013-10-17 06:58:00
3:03 AM,59.0,59.0,100,29.95,0.8,ESE,2.3,-,N/A,,Clear,120,2013-10-17 07:03:00
3:08 AM,59.0,59.0,100,29.95,2.0,ESE,2.3,-,N/A,,Clear,120,2013-10-17 07:08:00
3:13 AM,59.0,59.0,100,29.95,2.0,SE,2.3,-,N/A,,Partly Cloudy,130,2013-10-17 07:13:00
3:23 AM,59.0,59.0,100,29.95,4.0,Calm,Calm,-,N/A,,Mostly Cloudy,0,2013-10-17 07:23:00
3:28 AM,59.0,59.0,100,29.94,6.0,Calm,Calm,-,N/A,,Mostly Cloudy,0,2013-10-17 07:28:00
3:43 AM,59.0,59.0,100,29.94,10.0,ESE,2.3,-,N/A,,Overcast,120,2013-10-17 07:43:00
3:58 AM,59.4,59.4,100,29.95,10.0,Calm,Calm,-,N/A,,Overcast,0,2013-10-17 07:58:00
4:58 AM,60.3,60.1,99,29.95,10.0,Calm,Calm,-,N/A,,Mostly Cloudy,0,2013-10-17 08:58:00
5:58 AM,60.1,60.1,100,29.96,10.0,Calm,Calm,-,N/A,,Scattered Clouds,0,2013-10-17 09:58:00
6:03 AM,60.8,60.8,100,29.95,9.0,Calm,Calm,-,N/A,,Mostly Cloudy,0,2013-10-17 10:03:00
6:13 AM,59.0,59.0,100,29.94,9.0,SE,3.5,-,N/A,,Scattered Clouds,130,2013-10-17 10:13:00
6:33 AM,59.0,59.0,100,29.95,7.0,SE,2.3,-,N/A,,Partly Cloudy,130,2013-10-17 10:33:00
6:53 AM,59.0,59.0,100,29.95,3.0,SE,3.5,-,N/A,,Clear,140,2013-10-17 10:53:00
6:58 AM,58.1,58.1,100,29.96,3.0,SE,3.5,-,N/A,,Clear,130,2013-10-17 10:58:00
7:08 AM,57.2,57.2,100,29.95,8.0,SE,4.6,-,N/A,,Partly Cloudy,140,2013-10-17 11:08:00
7:10 AM,59.0,59.0,100,29.95,5.0,SSE,4.6,-,N/A,,Mostly Cloudy,160,2013-10-17 11:10:00
7:28 AM,59.0,59.0,100,29.96,10.0,SE,4.6,-,N/A,,Mostly Cloudy,140,2013-10-17 11:28:00
7:58 AM,59.4,59.4,100,29.97,10.0,SE,3.5,-,N/A,,Mostly Cloudy,130,2013-10-17 11:58:00
8:58 AM,64.8,64.4,99,29.98,10.0,Calm,Calm,-,N/A,,Overcast,0,2013-10-17 12:58:00
9:58 AM,72.0,66.7,84,29.99,10.0,SSW,3.5,-,N/A,,Mostly Cloudy,200,2013-10-17 13:58:00
10:58 AM,75.4,69.1,81,29.99,10.0,SW,4.6,-,N/A,,Overcast,230,2013-10-17 14:58:00
11:43 AM,77.0,69.8,78,29.97,10.0,SSW,6.9,-,N/A,,Overcast,210,2013-10-17 15:43:00
11:58 AM,77.5,70.0,77,29.98,10.0,Variable,6.9,-,N/A,,Overcast,0,2013-10-17 15:58:00
12:18 PM,78.8,69.8,74,29.96,10.0,SW,11.5,-,N/A,,Overcast,220,2013-10-17 16:18:00
12:58 PM,79.7,69.3,70,29.96,10.0,SW,9.2,-,N/A,,Mostly Cloudy,230,2013-10-17 16:58:00
1:58 PM,79.5,69.1,70,29.93,10.0,SSW,8.1,-,N/A,,Overcast,210,2013-10-17 17:58:00
2:58 PM,79.5,68.7,69,29.90,10.0,SW,8.1,-,N/A,,Overcast,220,2013-10-17 18:58:00
3:47 PM,78.8,69.8,74,29.89,10.0,SW,4.6,-,N/A,Rain,Light Rain,230,2013-10-17 19:47:00
3:57 PM,77.0,69.8,78,29.88,10.0,WSW,3.5,-,N/A,,Light Drizzle,250,2013-10-17 19:57:00
3:58 PM,77.7,69.4,76,29.89,10.0,West,3.5,-,0.00,,Light Drizzle,260,2013-10-17 19:58:00
4:03 PM,77.0,69.8,78,29.88,10.0,Variable,4.6,-,N/A,Rain,Light Rain,0,2013-10-17 20:03:00
4:08 PM,77.0,71.6,83,29.89,8.0,West,4.6,-,N/A,Rain,Light Rain,260,2013-10-17 20:08:00
4:23 PM,75.2,71.6,89,29.89,6.0,NNW,6.9,-,N/A,Rain,Light Rain,330,2013-10-17 20:23:00
4:45 PM,73.4,73.4,100,29.89,10.0,NW,8.1,-,N/A,,Scattered Clouds,320,2013-10-17 20:45:00
4:50 PM,73.4,73.4,100,29.89,10.0,NW,5.8,-,N/A,Rain,Light Rain,310,2013-10-17 20:50:00
4:58 PM,73.0,72.7,99,29.91,8.0,NW,5.8,-,0.04,Rain,Light Rain,310,2013-10-17 20:58:00
5:13 PM,71.6,71.6,100,29.90,10.0,WNW,5.8,-,N/A,Rain,Light Rain,300,2013-10-17 21:13:00
5:18 PM,71.6,71.6,100,29.90,10.0,WNW,4.6,-,N/A,Rain,Light Rain,300,2013-10-17 21:18:00
5:23 PM,71.6,71.6,100,29.90,9.0,WNW,5.8,-,N/A,Rain,Light Rain,300,2013-10-17 21:23:00
5:55 PM,71.6,71.6,100,29.91,8.0,Calm,Calm,-,N/A,,Drizzle,0,2013-10-17 21:55:00
6:06 PM,71.6,71.6,100,29.91,10.0,NW,1.2,-,N/A,,Overcast,310,2013-10-17 22:06:00
6:36 PM,71.6,71.6,100,29.90,10.0,Variable,1.2,-,N/A,,Mostly Cloudy,0,2013-10-17 22:36:00
6:58 PM,71.2,71.2,100,29.92,10.0,East,1.2,-,0.00,,Mostly Cloudy,80,2013-10-17 22:58:00
7:18 PM,71.6,71.6,100,29.90,10.0,ESE,2.3,-,N/A,,Overcast,110,2013-10-17 23:18:00
7:43 PM,69.8,69.8,100,29.90,10.0,SSE,3.5,-,N/A,,Overcast,160,2013-10-17 23:43:00
7:48 PM,69.8,69.8,100,29.91,10.0,South,2.3,-,N/A,,Overcast,180,2013-10-17 23:48:00
7:58 PM,70.7,70.7,100,29.92,10.0,SSE,2.3,-,N/A,,Overcast,160,2013-10-17 23:58:00
8:43 PM,69.8,69.8,100,29.92,9.0,Calm,Calm,-,N/A,,Overcast,0,2013-10-18 00:43:00
8:58 PM,70.7,70.7,100,29.93,8.0,Calm,Calm,-,N/A,,Mostly Cloudy,0,2013-10-18 00:58:00
9:03 PM,71.6,71.6,100,29.92,7.0,Calm,Calm,-,N/A,,Mostly Cloudy,0,2013-10-18 01:03:00
9:13 PM,69.8,69.8,100,29.92,5.0,Calm,Calm,-,N/A,,Mostly Cloudy,0,2013-10-18 01:13:00
9:14 PM,69.8,69.8,100,29.92,5.0,Calm,Calm,-,N/A,,Light Drizzle,0,2013-10-18 01:14:00
9:24 PM,69.8,69.8,100,29.92,3.0,Calm,Calm,-,N/A,Rain,Rain,0,2013-10-18 01:24:00
9:29 PM,69.8,69.8,100,29.93,2.0,WNW,2.3,-,N/A,Rain,Rain,300,2013-10-18 01:29:00
9:36 PM,69.8,69.8,100,29.93,2.0,WNW,5.8,-,N/A,Rain,Heavy Rain,300,2013-10-18 01:36:00
9:41 PM,69.8,69.8,100,29.93,3.0,NW,8.1,-,N/A,Rain,Rain,310,2013-10-18 01:41:00
9:46 PM,69.8,69.8,100,29.93,6.0,NW,8.1,-,N/A,Rain,Light Rain,320,2013-10-18 01:46:00
9:51 PM,68.0,68.0,100,29.93,10.0,NW,5.8,-,N/A,Rain,Light Rain,310,2013-10-18 01:51:00
9:58 PM,68.7,68.7,100,29.94,10.0,NW,5.8,-,0.10,,Light Drizzle,320,2013-10-18 01:58:00
10:03 PM,68.0,68.0,100,29.93,8.0,NW,3.5,-,N/A,,Drizzle,310,2013-10-18 02:03:00
10:16 PM,68.0,68.0,100,29.93,9.0,West,2.3,-,N/A,,Overcast,260,2013-10-18 02:16:00
10:21 PM,68.0,68.0,100,29.93,10.0,Calm,Calm,-,N/A,,Overcast,0,2013-10-18 02:21:00
10:26 PM,68.0,68.0,100,29.93,9.0,West,2.3,-,N/A,,Overcast,270,2013-10-18 02:26:00
10:31 PM,69.8,69.8,100,29.94,8.0,West,2.3,-,N/A,,Light Drizzle,270,2013-10-18 02:31:00
10:46 PM,69.8,69.8,100,29.93,8.0,Calm,Calm,-,N/A,,Overcast,0,2013-10-18 02:46:00
10:58 PM,68.9,68.9,100,29.95,7.0,West,2.3,-,0.00,,Overcast,280,2013-10-18 02:58:00
11:13 PM,69.8,69.8,100,29.94,10.0,WNW,3.5,-,N/A,,Overcast,300,2013-10-18 03:13:00
11:58 PM,68.9,68.9,100,29.95,10.0,NW,6.9,-,0.01,,Overcast,310,2013-10-18 03:58:00